createdAt,value
2022-09-12T00:00:15.559Z,424
2022-09-12T00:01:07.398Z,414
2022-09-12T00:02:16.877Z,412
2022-09-12T00:03:16.529Z,413
2022-09-12T00:04:06.031Z,416
2022-09-12T00:05:16.150Z,413
2022-09-12T00:06:18.169Z,404
2022-09-12T00:07:07.229Z,414
2022-09-12T00:08:15.879Z,415
2022-09-12T00:09:15.429Z,411
2022-09-12T00:10:15.708Z,403
2022-09-12T00:11:16.390Z,404
2022-09-12T00:12:16.220Z,405
2022-09-12T00:13:16.148Z,397
2022-09-12T00:14:15.403Z,400
2022-09-12T00:15:16.284Z,394
2022-09-12T00:16:15.592Z,387
2022-09-12T00:17:16.613Z,382
2022-09-12T00:18:15.603Z,381
2022-09-12T00:19:06.596Z,388
2022-09-12T00:20:16.231Z,386
2022-09-12T00:21:07.125Z,381
2022-09-12T00:22:15.976Z,380
2022-09-12T00:23:16.508Z,390
2022-09-12T00:24:14.810Z,389
2022-09-12T00:25:15.643Z,382
2022-09-12T00:26:15.932Z,383
2022-09-12T00:27:16.176Z,394
2022-09-12T00:29:06.607Z,390
2022-09-12T00:30:06.631Z,397
2022-09-12T00:31:16.153Z,398
2022-09-12T00:32:16.411Z,400
2022-09-12T00:33:16.295Z,389
2022-09-12T00:34:15.513Z,391
2022-09-12T00:35:16.395Z,402
2022-09-12T00:37:15.886Z,408
2022-09-12T00:38:16.318Z,407
2022-09-12T00:39:15.336Z,404
2022-09-12T00:40:15.632Z,401
2022-09-12T00:42:16.249Z,396
2022-09-12T00:43:15.905Z,401
2022-09-12T00:44:15.918Z,405
2022-09-12T00:45:16.186Z,412
2022-09-12T00:46:15.358Z,404
2022-09-12T00:47:16.139Z,399
2022-09-12T00:48:15.412Z,404
2022-09-12T00:49:15.749Z,408
2022-09-12T00:50:16.001Z,402
2022-09-12T00:51:15.891Z,404
2022-09-12T00:52:16.071Z,412
2022-09-12T00:53:15.681Z,411
2022-09-12T00:54:05.785Z,413
2022-09-12T00:55:15.681Z,419
2022-09-12T00:56:16.418Z,413
2022-09-12T00:57:15.396Z,403
2022-09-12T00:58:16.742Z,402
2022-09-12T00:59:15.516Z,407
2022-09-12T01:00:15.903Z,416
2022-09-12T01:01:16.600Z,412
2022-09-12T01:02:16.445Z,397
2022-09-12T01:03:16.216Z,400
2022-09-12T01:04:15.592Z,401
2022-09-12T01:05:07.348Z,402
2022-09-12T01:06:07.643Z,418
2022-09-12T01:07:15.310Z,417
2022-09-12T01:08:15.831Z,416
2022-09-12T01:09:15.836Z,412
2022-09-12T01:10:15.725Z,414
2022-09-12T01:11:16.144Z,416
2022-09-12T01:12:16.546Z,417
2022-09-12T01:13:16.258Z,416
2022-09-12T01:14:07.268Z,413
2022-09-12T01:15:16.404Z,416
2022-09-12T01:17:07.211Z,412
2022-09-12T01:18:16.451Z,411
2022-09-12T01:19:06.785Z,409
2022-09-12T01:20:16.247Z,413
2022-09-12T01:21:15.816Z,412
2022-09-12T01:22:16.706Z,406
2022-09-12T01:23:16.222Z,408
2022-09-12T01:24:15.042Z,405
2022-09-12T01:25:15.402Z,411
2022-09-12T01:26:15.815Z,408
2022-09-12T01:27:07.274Z,405
2022-09-12T01:28:15.699Z,412
2022-09-12T01:29:15.607Z,413
2022-09-12T01:30:15.770Z,410
2022-09-12T01:31:16.057Z,400
2022-09-12T01:32:15.889Z,401
2022-09-12T01:33:16.299Z,392
2022-09-12T01:34:16.017Z,393
2022-09-12T01:35:15.620Z,386
2022-09-12T01:36:16.194Z,390
2022-09-12T01:37:15.826Z,381
2022-09-12T01:38:16.539Z,388
2022-09-12T01:39:15.138Z,389
2022-09-12T01:40:16.107Z,398
2022-09-12T01:41:16.403Z,393
2022-09-12T01:42:16.191Z,388
2022-09-12T01:43:15.457Z,391
2022-09-12T01:44:14.992Z,393
2022-09-12T01:45:15.967Z,382
2022-09-12T01:46:15.685Z,378
2022-09-12T01:47:15.906Z,377
2022-09-12T01:48:16.531Z,383
2022-09-12T01:49:15.215Z,381
2022-09-12T01:50:15.533Z,382
2022-09-12T01:51:16.355Z,386
2022-09-12T01:52:15.943Z,384
2022-09-12T01:54:14.531Z,385
2022-09-12T01:55:16.062Z,387
2022-09-12T01:57:15.428Z,386
2022-09-12T01:58:16.541Z,383
2022-09-12T01:59:16.280Z,388
2022-09-12T02:00:15.668Z,387
2022-09-12T02:01:16.262Z,392
2022-09-12T02:02:06.913Z,394
2022-09-12T02:03:15.977Z,395
2022-09-12T02:04:14.745Z,389
2022-09-12T02:05:16.143Z,387
2022-09-12T02:06:06.509Z,385
2022-09-12T02:07:16.032Z,382
2022-09-12T02:08:15.795Z,379
2022-09-12T02:09:15.389Z,382
2022-09-12T02:10:15.827Z,379
2022-09-12T02:11:16.390Z,382
2022-09-12T02:12:16.198Z,384
2022-09-12T02:13:15.829Z,386
2022-09-12T02:14:15.914Z,388
2022-09-12T02:15:16.172Z,381
2022-09-12T02:16:16.858Z,377
2022-09-12T02:17:16.388Z,375
2022-09-12T02:18:15.526Z,380
2022-09-12T02:19:07.339Z,378
2022-09-12T02:20:26.035Z,381
2022-09-12T02:21:16.432Z,382
2022-09-12T02:22:15.702Z,394
2022-09-12T02:23:06.801Z,397
2022-09-12T02:24:14.769Z,392
2022-09-12T02:26:16.389Z,395
2022-09-12T02:27:07.154Z,391
2022-09-12T02:28:15.910Z,388
2022-09-12T02:29:16.559Z,376
2022-09-12T02:30:06.636Z,375
2022-09-12T02:31:16.185Z,373
2022-09-12T02:32:07.024Z,386
2022-09-12T02:33:15.968Z,406
2022-09-12T02:34:07.999Z,405
2022-09-12T02:35:07.216Z,391
2022-09-12T02:36:15.893Z,384
2022-09-12T02:37:07.745Z,380
2022-09-12T02:38:15.984Z,385
2022-09-12T02:39:16.495Z,387
2022-09-12T02:40:15.932Z,381
2022-09-12T02:41:16.569Z,390
2022-09-12T02:42:15.790Z,377
2022-09-12T02:43:06.669Z,376
2022-09-12T02:44:15.291Z,383
2022-09-12T02:45:16.493Z,374
2022-09-12T02:46:15.812Z,387
2022-09-12T02:47:15.970Z,392
2022-09-12T02:48:16.234Z,389
2022-09-12T02:49:15.968Z,375
2022-09-12T02:50:15.459Z,381
2022-09-12T02:51:20.294Z,387
2022-09-12T02:52:15.904Z,386
2022-09-12T02:53:16.673Z,375
2022-09-12T02:54:15.452Z,377
2022-09-12T02:55:15.929Z,380
2022-09-12T02:56:16.605Z,379
2022-09-12T02:57:19.502Z,385
2022-09-12T02:58:06.961Z,378
2022-09-12T03:00:15.339Z,382
2022-09-12T03:01:16.259Z,367
2022-09-12T03:03:15.440Z,381
2022-09-12T03:04:15.338Z,376
2022-09-12T03:05:16.051Z,381
2022-09-12T03:06:16.310Z,380
2022-09-12T03:07:15.967Z,377
2022-09-12T03:08:15.848Z,368
2022-09-12T03:09:15.480Z,371
2022-09-12T03:10:15.782Z,373
2022-09-12T03:12:16.347Z,371
2022-09-12T03:13:16.009Z,373
2022-09-12T03:14:15.684Z,381
2022-09-12T03:15:16.337Z,378
2022-09-12T03:16:15.440Z,383
2022-09-12T03:17:08.087Z,380
2022-09-12T03:18:15.786Z,382
2022-09-12T03:19:16.418Z,387
2022-09-12T03:20:15.714Z,382
2022-09-12T03:21:06.798Z,381
2022-09-12T03:22:15.762Z,376
2022-09-12T03:23:16.642Z,387
2022-09-12T03:25:15.700Z,393
2022-09-12T03:26:16.077Z,386
2022-09-12T03:27:15.916Z,387
2022-09-12T03:28:16.513Z,386
2022-09-12T03:29:15.439Z,385
2022-09-12T03:30:06.545Z,383
2022-09-12T03:31:06.979Z,384
2022-09-12T03:32:16.053Z,379
2022-09-12T03:33:15.784Z,382
2022-09-12T03:34:15.321Z,374
2022-09-12T03:35:19.787Z,366
2022-09-12T03:36:15.542Z,375
2022-09-12T03:37:08.190Z,381
2022-09-12T03:38:16.778Z,384
2022-09-12T03:39:16.391Z,391
2022-09-12T03:40:15.666Z,383
2022-09-12T03:41:16.836Z,382
2022-09-12T03:42:16.319Z,387
2022-09-12T03:43:16.088Z,391
2022-09-12T03:45:15.886Z,397
2022-09-12T03:46:07.308Z,387
2022-09-12T03:48:16.174Z,384
2022-09-12T03:49:15.871Z,383
2022-09-12T03:50:16.616Z,384
2022-09-12T03:52:15.484Z,393
2022-09-12T03:53:17.418Z,400
2022-09-12T03:54:14.914Z,382
2022-09-12T03:55:07.260Z,383
2022-09-12T03:56:15.820Z,388
2022-09-12T03:57:16.574Z,381
2022-09-12T03:58:16.045Z,375
2022-09-12T03:59:14.976Z,382
2022-09-12T04:00:19.731Z,385
2022-09-12T04:01:06.971Z,384
2022-09-12T04:02:16.378Z,382
2022-09-12T04:04:15.775Z,388
2022-09-12T04:05:16.144Z,385
2022-09-12T04:06:16.081Z,389
2022-09-12T04:07:07.510Z,396
2022-09-12T04:08:16.175Z,384
2022-09-12T04:09:07.065Z,375
2022-09-12T04:10:16.567Z,383
2022-09-12T04:11:07.242Z,381
2022-09-12T04:12:07.764Z,386
2022-09-12T04:13:08.031Z,385
2022-09-12T04:14:14.286Z,380
2022-09-12T04:15:06.871Z,382
2022-09-12T04:16:16.267Z,388
2022-09-12T04:17:06.939Z,390
2022-09-12T04:19:14.829Z,388
2022-09-12T04:20:15.643Z,389
2022-09-12T04:21:15.859Z,401
2022-09-12T04:22:16.125Z,397
2022-09-12T04:23:15.969Z,401
2022-09-12T04:24:14.878Z,397
2022-09-12T04:27:16.189Z,398
2022-09-12T04:28:15.302Z,393
2022-09-12T04:30:15.729Z,399
2022-09-12T04:31:15.633Z,390
2022-09-12T04:32:16.428Z,386
2022-09-12T04:33:16.317Z,381
2022-09-12T04:34:15.076Z,388
2022-09-12T04:35:16.552Z,403
2022-09-12T04:36:07.820Z,413
2022-09-12T04:37:16.108Z,402
2022-09-12T04:38:15.615Z,394
2022-09-12T04:39:06.732Z,399
2022-09-12T04:40:15.347Z,402
2022-09-12T04:41:16.438Z,392
2022-09-12T04:42:17.168Z,390
2022-09-12T04:43:18.774Z,400
2022-09-12T04:44:15.670Z,408
2022-09-12T04:45:15.847Z,415
2022-09-12T04:46:15.579Z,401
2022-09-12T04:47:17.785Z,395
2022-09-12T04:48:15.273Z,410
2022-09-12T04:49:14.425Z,408
2022-09-12T04:50:16.220Z,409
2022-09-12T04:52:15.988Z,407
2022-09-12T04:53:16.368Z,413
2022-09-12T04:56:15.232Z,418
2022-09-12T04:57:16.233Z,429
2022-09-12T04:58:16.100Z,431
2022-09-12T04:59:08.029Z,428
2022-09-12T05:00:07.421Z,425
2022-09-12T05:01:16.596Z,429
2022-09-12T05:02:15.855Z,433
2022-09-12T05:03:16.657Z,423
2022-09-12T05:04:15.983Z,427
2022-09-12T05:05:15.624Z,433
2022-09-12T05:06:07.217Z,438
2022-09-12T05:07:15.745Z,433
2022-09-12T05:08:15.289Z,434
2022-09-12T05:09:14.781Z,437
2022-09-12T05:10:15.637Z,428
2022-09-12T05:11:07.317Z,440
2022-09-12T05:12:15.587Z,449
2022-09-12T05:13:15.573Z,428
2022-09-12T05:14:15.445Z,434
2022-09-12T05:15:16.022Z,435
2022-09-12T05:16:15.685Z,436
2022-09-12T05:18:07.316Z,441
2022-09-12T05:19:16.144Z,447
2022-09-12T05:20:15.994Z,455
2022-09-12T05:21:16.734Z,449
2022-09-12T05:22:16.200Z,448
2022-09-12T05:23:15.876Z,447
2022-09-12T05:24:16.512Z,435
2022-09-12T05:25:16.171Z,434
2022-09-12T05:26:15.764Z,435
2022-09-12T05:27:07.982Z,437
2022-09-12T05:28:15.766Z,439
2022-09-12T05:29:16.097Z,438
2022-09-12T05:30:21.352Z,431
2022-09-12T05:31:15.726Z,435
2022-09-12T05:32:07.759Z,451
2022-09-12T05:33:16.594Z,439
2022-09-12T05:34:15.003Z,440
2022-09-12T05:37:16.265Z,435
2022-09-12T05:38:15.610Z,431
2022-09-12T05:39:16.206Z,430
2022-09-12T05:40:07.481Z,434
2022-09-12T05:41:22.991Z,433
2022-09-12T05:43:07.768Z,427
2022-09-12T05:44:16.220Z,425
2022-09-12T05:45:15.656Z,422
2022-09-12T05:46:16.608Z,431
2022-09-12T05:47:07.567Z,436
2022-09-12T05:48:06.944Z,437
2022-09-12T05:50:15.543Z,432
2022-09-12T05:51:16.068Z,433
2022-09-12T05:52:15.851Z,427
2022-09-12T05:53:16.551Z,428
2022-09-12T05:54:16.421Z,435
2022-09-12T05:55:15.672Z,440
2022-09-12T05:56:16.818Z,432
2022-09-12T05:57:16.228Z,433
2022-09-12T05:59:16.013Z,422
2022-09-12T06:00:16.745Z,424
2022-09-12T06:01:16.302Z,427
2022-09-12T06:02:15.872Z,426
2022-09-12T06:03:07.937Z,433
2022-09-12T06:04:15.501Z,425
2022-09-12T06:05:16.247Z,416
2022-09-12T06:06:15.771Z,423
2022-09-12T06:07:15.919Z,427
2022-09-12T06:08:16.352Z,426
2022-09-12T06:09:15.178Z,420
2022-09-12T06:10:16.481Z,427
2022-09-12T06:11:07.362Z,421
2022-09-12T06:12:16.702Z,415
2022-09-12T06:13:16.077Z,416
2022-09-12T06:14:15.196Z,424
2022-09-12T06:15:16.602Z,428
2022-09-12T06:16:15.441Z,421
2022-09-12T06:17:07.859Z,416
2022-09-12T06:18:16.171Z,403
2022-09-12T06:19:08.130Z,408
2022-09-12T06:20:16.027Z,411
2022-09-12T06:21:16.741Z,410
2022-09-12T06:22:16.195Z,413
2022-09-12T06:23:15.734Z,407
2022-09-12T06:24:16.289Z,415
2022-09-12T06:25:15.905Z,419
2022-09-12T06:26:15.543Z,421
2022-09-12T06:27:16.094Z,407
2022-09-12T06:28:16.169Z,412
2022-09-12T06:29:16.727Z,408
2022-09-12T06:30:16.399Z,406
2022-09-12T06:31:16.263Z,414
2022-09-12T06:32:16.639Z,425
2022-09-12T06:33:16.132Z,410
2022-09-12T06:34:15.199Z,401
2022-09-12T06:35:16.413Z,391
2022-09-12T06:36:17.063Z,387
2022-09-12T06:37:15.655Z,386
2022-09-12T06:38:16.106Z,391
2022-09-12T06:39:07.472Z,385
2022-09-12T06:40:15.695Z,392
2022-09-12T06:41:15.365Z,395
2022-09-12T06:42:06.918Z,392
2022-09-12T06:43:07.241Z,386
2022-09-12T06:44:16.382Z,382
2022-09-12T06:45:16.786Z,370
2022-09-12T06:46:16.261Z,356
2022-09-12T06:47:15.846Z,361
2022-09-12T06:48:16.018Z,367
2022-09-12T06:49:15.853Z,365
2022-09-12T06:50:16.721Z,362
2022-09-12T06:51:07.758Z,369
2022-09-12T06:52:16.455Z,363
2022-09-12T06:53:16.010Z,360
2022-09-12T06:54:15.639Z,370
2022-09-12T06:55:19.463Z,362
2022-09-12T06:56:16.022Z,354
2022-09-12T06:58:15.720Z,363
2022-09-12T06:59:15.592Z,352
2022-09-12T07:00:16.665Z,353
2022-09-12T07:01:16.181Z,355
2022-09-12T07:02:07.306Z,365
2022-09-12T07:03:16.081Z,361
2022-09-12T07:04:16.486Z,354
2022-09-12T07:05:16.209Z,351
2022-09-12T07:07:16.182Z,367
2022-09-12T07:08:15.780Z,369
2022-09-12T07:09:16.780Z,360
2022-09-12T07:10:19.107Z,362
2022-09-12T07:11:07.363Z,355
2022-09-12T07:12:16.234Z,359
2022-09-12T07:13:15.786Z,376
2022-09-12T07:14:16.355Z,377
2022-09-12T07:15:16.001Z,369
2022-09-12T07:16:19.762Z,359
2022-09-12T07:17:16.492Z,362
2022-09-12T07:18:16.117Z,366
2022-09-12T07:19:15.378Z,358
2022-09-12T07:20:16.353Z,364
2022-09-12T07:21:15.918Z,359
2022-09-12T07:22:15.800Z,347
2022-09-12T07:23:16.481Z,349
2022-09-12T07:24:16.114Z,350
2022-09-12T07:25:15.505Z,367
2022-09-12T07:26:16.202Z,363
2022-09-12T07:27:15.621Z,354
2022-09-12T07:28:07.887Z,351
2022-09-12T07:29:38.548Z,352
2022-09-12T07:30:16.099Z,355
2022-09-12T07:31:15.647Z,366
2022-09-12T07:32:07.222Z,369
2022-09-12T07:33:15.946Z,371
2022-09-12T07:34:17.815Z,370
2022-09-12T07:35:15.909Z,366
2022-09-12T07:36:15.834Z,363
2022-09-12T07:37:16.648Z,351
2022-09-12T07:38:16.461Z,349
2022-09-12T07:39:15.638Z,368
2022-09-12T07:40:07.851Z,380
2022-09-12T07:41:07.376Z,378
2022-09-12T07:42:15.933Z,371
2022-09-12T07:43:16.379Z,378
2022-09-12T07:44:16.428Z,377
2022-09-12T07:45:15.640Z,360
2022-09-12T07:46:16.081Z,373
2022-09-12T07:47:16.029Z,386
2022-09-12T07:48:16.481Z,387
2022-09-12T07:49:16.225Z,388
2022-09-12T07:50:15.984Z,368
2022-09-12T07:51:16.336Z,376
2022-09-12T07:52:16.155Z,379
2022-09-12T07:53:15.619Z,383
2022-09-12T07:54:08.025Z,370
2022-09-12T07:55:15.425Z,361
2022-09-12T07:56:15.825Z,364
2022-09-12T07:57:16.005Z,369
2022-09-12T07:58:23.732Z,367
2022-09-12T07:59:29.987Z,355
2022-09-12T08:00:16.095Z,360
2022-09-12T08:01:15.507Z,363
2022-09-12T08:02:20.976Z,362
2022-09-12T08:03:16.207Z,368
2022-09-12T08:04:15.979Z,370
2022-09-12T08:05:16.516Z,375
2022-09-12T08:06:15.862Z,368
2022-09-12T08:07:15.871Z,365
2022-09-12T08:08:16.379Z,366
2022-09-12T08:09:15.825Z,351
2022-09-12T08:10:16.655Z,352
2022-09-12T08:11:07.717Z,355
2022-09-12T08:12:16.380Z,347
2022-09-12T08:13:16.355Z,357
2022-09-12T08:14:15.395Z,360
2022-09-12T08:15:16.620Z,373
2022-09-12T08:16:16.178Z,374
2022-09-12T08:17:15.719Z,371
2022-09-12T08:19:15.252Z,360
2022-09-12T08:20:15.373Z,374
2022-09-12T08:21:07.628Z,376
2022-09-12T08:22:16.230Z,378
2022-09-12T08:23:07.105Z,382
2022-09-12T08:24:15.776Z,369
2022-09-12T08:25:07.387Z,362
2022-09-12T08:26:16.002Z,360
2022-09-12T08:27:16.196Z,348
2022-09-12T08:28:06.911Z,351
2022-09-12T08:29:16.277Z,354
2022-09-12T08:30:15.754Z,360
2022-09-12T08:31:16.578Z,364
2022-09-12T08:32:15.865Z,370
2022-09-12T08:33:15.618Z,374
2022-09-12T08:34:16.183Z,371
2022-09-12T08:35:16.186Z,354
2022-09-12T08:36:15.573Z,355
2022-09-12T08:37:16.393Z,373
2022-09-12T08:38:07.444Z,370
2022-09-12T08:40:07.407Z,371
2022-09-12T08:41:16.359Z,368
2022-09-12T08:42:15.524Z,376
2022-09-12T08:43:16.541Z,382
2022-09-12T08:44:15.737Z,371
2022-09-12T08:45:16.380Z,364
2022-09-12T08:46:15.959Z,361
2022-09-12T08:47:15.749Z,356
2022-09-12T08:49:07.938Z,357
2022-09-12T08:50:08.185Z,359
2022-09-12T08:51:15.824Z,369
2022-09-12T08:52:16.344Z,367
2022-09-12T08:53:15.991Z,365
2022-09-12T08:54:08.162Z,361
2022-09-12T08:55:15.628Z,372
2022-09-12T08:56:07.689Z,368
2022-09-12T08:57:16.308Z,363
2022-09-12T08:59:14.924Z,361
2022-09-12T09:00:16.179Z,353
2022-09-12T09:01:16.015Z,357
2022-09-12T09:02:15.788Z,353
2022-09-12T09:03:16.126Z,368
2022-09-12T09:04:15.006Z,370
2022-09-12T09:05:16.604Z,365
2022-09-12T09:06:16.101Z,362
2022-09-12T09:07:15.942Z,354
2022-09-12T09:08:16.377Z,367
2022-09-12T09:09:07.014Z,370
2022-09-12T09:10:16.311Z,362
2022-09-12T09:11:15.858Z,358
2022-09-12T09:12:16.532Z,368
2022-09-12T09:13:07.736Z,371
2022-09-12T09:14:15.684Z,370
2022-09-12T09:16:15.642Z,360
2022-09-12T09:17:07.880Z,350
2022-09-12T09:18:15.160Z,358
2022-09-12T09:19:06.753Z,367
2022-09-12T09:20:16.483Z,372
2022-09-12T09:21:16.308Z,361
2022-09-12T09:22:07.569Z,355
2022-09-12T09:23:15.767Z,364
2022-09-12T09:24:15.451Z,369
2022-09-12T09:25:17.223Z,361
2022-09-12T09:26:15.487Z,359
2022-09-12T09:27:41.482Z,362
2022-09-12T09:28:22.376Z,356
2022-09-12T09:29:14.889Z,353
2022-09-12T09:30:15.881Z,354
2022-09-12T09:31:16.378Z,357
2022-09-12T09:32:15.689Z,355
2022-09-12T09:33:16.441Z,360
2022-09-12T09:34:15.239Z,368
2022-09-12T09:35:06.957Z,363
2022-09-12T09:36:07.049Z,355
2022-09-12T09:37:16.030Z,357
2022-09-12T09:38:15.487Z,352
2022-09-12T09:39:07.100Z,368
2022-09-12T09:40:07.835Z,359
2022-09-12T09:41:15.390Z,345
2022-09-12T09:42:15.911Z,346
2022-09-12T09:43:15.668Z,350
2022-09-12T09:45:15.610Z,369
2022-09-12T09:46:07.768Z,365
2022-09-12T09:47:15.685Z,352
2022-09-12T09:48:16.042Z,357
2022-09-12T09:49:15.952Z,354
2022-09-12T09:50:16.144Z,351
2022-09-12T09:51:07.587Z,344
2022-09-12T09:52:15.550Z,349
2022-09-12T09:54:06.296Z,350
2022-09-12T09:55:15.791Z,357
2022-09-12T09:56:18.376Z,354
2022-09-12T09:57:16.120Z,353
2022-09-12T09:58:07.715Z,356
2022-09-12T09:59:06.434Z,355
2022-09-12T10:00:15.651Z,361
2022-09-12T10:02:16.785Z,355
2022-09-12T10:03:12.612Z,361
2022-09-12T10:04:14.833Z,351
2022-09-12T10:05:07.364Z,347
2022-09-12T10:06:16.321Z,346
2022-09-12T10:07:16.033Z,350
2022-09-12T10:08:16.819Z,351
2022-09-12T10:09:15.589Z,357
2022-09-12T10:10:15.376Z,352
2022-09-12T10:11:16.471Z,349
2022-09-12T10:12:16.305Z,351
2022-09-12T10:15:16.873Z,354
2022-09-12T10:16:15.886Z,360
2022-09-12T10:17:07.521Z,356
2022-09-12T10:19:06.528Z,353
2022-09-12T10:20:25.696Z,348
2022-09-12T10:21:15.999Z,345
2022-09-12T10:22:16.062Z,355
2022-09-12T10:23:21.530Z,345
2022-09-12T10:24:14.944Z,350
2022-09-12T10:25:15.767Z,355
2022-09-12T10:26:16.074Z,348
2022-09-12T10:27:16.175Z,338
2022-09-12T10:28:15.663Z,334
2022-09-12T10:29:15.703Z,329
2022-09-12T10:30:15.976Z,330
2022-09-12T10:31:15.331Z,327
2022-09-12T10:32:16.455Z,331
2022-09-12T10:34:21.020Z,336
2022-09-12T10:35:16.383Z,341
2022-09-12T10:36:15.474Z,344
2022-09-12T10:37:07.499Z,341
2022-09-12T10:38:15.513Z,334
2022-09-12T10:39:15.733Z,336
2022-09-12T10:40:21.294Z,339
2022-09-12T10:41:15.352Z,342
2022-09-12T10:42:20.330Z,347
2022-09-12T10:43:15.957Z,341
2022-09-12T10:44:14.989Z,329
2022-09-12T10:45:18.695Z,323
2022-09-12T10:46:15.953Z,330
2022-09-12T10:47:15.650Z,337
2022-09-12T10:48:15.912Z,334
2022-09-12T10:50:22.643Z,342
2022-09-12T10:51:07.976Z,339
2022-09-12T10:52:15.067Z,332
2022-09-12T10:53:16.425Z,340
2022-09-12T10:54:15.534Z,334
2022-09-12T10:55:15.803Z,322
2022-09-12T10:56:16.145Z,320
2022-09-12T10:57:16.205Z,332
2022-09-12T10:58:07.415Z,335
2022-09-12T10:59:18.094Z,328
2022-09-12T11:00:16.467Z,333
2022-09-12T11:01:16.047Z,335
2022-09-12T11:02:07.392Z,349
2022-09-12T11:03:15.423Z,345
2022-09-12T11:04:15.607Z,340
2022-09-12T11:05:19.466Z,343
2022-09-12T11:06:16.430Z,342
2022-09-12T11:07:07.387Z,346
2022-09-12T11:08:15.867Z,330
2022-09-12T11:09:06.607Z,334
2022-09-12T11:10:15.661Z,328
2022-09-12T11:11:16.738Z,339
2022-09-12T11:12:16.286Z,341
2022-09-12T11:13:07.388Z,332
2022-09-12T11:14:14.705Z,330
2022-09-12T11:15:16.301Z,321
2022-09-12T11:16:15.697Z,318
2022-09-12T11:17:18.328Z,315
2022-09-12T11:18:15.810Z,318
2022-09-12T11:19:06.631Z,322
2022-09-12T11:20:16.038Z,324
2022-09-12T11:21:15.636Z,328
2022-09-12T11:22:15.948Z,337
2022-09-12T11:23:16.075Z,342
2022-09-12T11:24:06.362Z,341
2022-09-12T11:25:15.957Z,344
2022-09-12T11:26:16.368Z,348
2022-09-12T11:27:15.841Z,328
2022-09-12T11:28:16.449Z,331
2022-09-12T11:29:15.248Z,319
2022-09-12T11:30:15.644Z,328
2022-09-12T11:31:16.527Z,336
2022-09-12T11:32:16.261Z,344
2022-09-12T11:33:15.913Z,353
2022-09-12T11:34:15.838Z,336
2022-09-12T11:36:15.949Z,340
2022-09-12T11:37:18.182Z,338
2022-09-12T11:38:07.355Z,340
2022-09-12T11:39:15.530Z,343
2022-09-12T11:40:07.844Z,336
2022-09-12T11:41:16.223Z,326
2022-09-12T11:42:07.432Z,332
2022-09-12T11:44:15.340Z,328
2022-09-12T11:45:16.035Z,335
2022-09-12T11:46:15.980Z,344
2022-09-12T11:47:16.122Z,346
2022-09-12T11:48:15.707Z,336
2022-09-12T11:49:15.206Z,325
2022-09-12T11:51:16.076Z,327
2022-09-12T11:52:07.343Z,336
2022-09-12T11:54:07.262Z,331
2022-09-12T11:55:15.514Z,319
2022-09-12T11:57:15.801Z,315
2022-09-12T11:58:07.922Z,334
2022-09-12T11:59:14.993Z,336
2022-09-12T12:00:16.360Z,335
2022-09-12T12:01:15.961Z,326
2022-09-12T12:02:07.803Z,332
2022-09-12T12:03:16.035Z,339
2022-09-12T12:04:15.609Z,345
2022-09-12T12:05:16.205Z,337
2022-09-12T12:06:16.028Z,341
2022-09-12T12:07:16.660Z,343
2022-09-12T12:08:15.755Z,345
2022-09-12T12:09:14.861Z,338
2022-09-12T12:10:08.056Z,335
2022-09-12T12:11:07.320Z,337
2022-09-12T12:12:16.118Z,344
2022-09-12T12:13:18.620Z,334
2022-09-12T12:14:16.772Z,326
2022-09-12T12:15:16.346Z,328
2022-09-12T12:16:15.703Z,334
2022-09-12T12:18:16.199Z,335
2022-09-12T12:19:15.777Z,339
2022-09-12T12:20:08.850Z,335
2022-09-12T12:21:16.168Z,338
2022-09-12T12:22:16.402Z,347
2022-09-12T12:23:16.500Z,345
2022-09-12T12:24:15.060Z,347
2022-09-12T12:25:21.317Z,344
2022-09-12T12:26:15.994Z,332
2022-09-12T12:27:15.807Z,333
2022-09-12T12:28:16.666Z,347
2022-09-12T12:29:15.212Z,342
2022-09-12T12:30:15.787Z,350
2022-09-12T12:32:15.694Z,347
2022-09-12T12:34:15.664Z,346
2022-09-12T12:35:15.897Z,345
2022-09-12T12:36:15.499Z,352
2022-09-12T12:37:16.175Z,359
2022-09-12T12:38:15.839Z,340
2022-09-12T12:39:15.540Z,344
2022-09-12T12:40:15.665Z,342
2022-09-12T12:41:15.386Z,345
2022-09-12T12:42:08.001Z,357
2022-09-12T12:43:15.583Z,345
2022-09-12T12:44:15.469Z,342
2022-09-12T12:45:07.251Z,351
2022-09-12T12:47:16.129Z,347
2022-09-12T12:48:15.476Z,346
2022-09-12T12:49:15.655Z,342
2022-09-12T12:51:15.651Z,344
2022-09-12T12:52:16.098Z,348
2022-09-12T12:53:16.213Z,351
2022-09-12T12:54:08.702Z,345
2022-09-12T12:56:16.242Z,347
2022-09-12T12:57:16.424Z,360
2022-09-12T12:58:07.396Z,361
2022-09-12T12:59:06.549Z,363
2022-09-12T13:00:16.084Z,369
2022-09-12T13:01:15.739Z,357
2022-09-12T13:02:16.102Z,345
2022-09-12T13:03:16.016Z,346
2022-09-12T13:04:15.648Z,336
2022-09-12T13:05:16.289Z,339
2022-09-12T13:06:16.378Z,333
2022-09-12T13:07:16.788Z,345
2022-09-12T13:08:07.423Z,351
2022-09-12T13:09:15.692Z,353
2022-09-12T13:10:06.974Z,349
2022-09-12T13:11:16.076Z,348
2022-09-12T13:12:15.895Z,339
2022-09-12T13:13:16.562Z,344
2022-09-12T13:14:15.020Z,348
2022-09-12T13:15:06.877Z,353
2022-09-12T13:16:15.910Z,340
2022-09-12T13:17:16.503Z,345
2022-09-12T13:18:16.339Z,349
2022-09-12T13:19:18.427Z,359
2022-09-12T13:20:31.118Z,349
2022-09-12T13:21:07.392Z,348
2022-09-12T13:22:16.242Z,347
2022-09-12T13:23:15.800Z,358
2022-09-12T13:24:14.865Z,352
2022-09-12T13:25:16.244Z,348
2022-09-12T13:26:15.462Z,349
2022-09-12T13:27:15.490Z,346
2022-09-12T13:28:16.599Z,336
2022-09-12T13:29:15.159Z,341
2022-09-12T13:30:15.895Z,350
2022-09-12T13:32:34.468Z,359
2022-09-12T13:33:15.674Z,366
2022-09-12T13:34:15.597Z,360
2022-09-12T13:35:07.064Z,347
2022-09-12T13:36:07.673Z,357
2022-09-12T13:37:07.525Z,346
2022-09-12T13:38:07.884Z,344
2022-09-12T13:39:06.358Z,345
2022-09-12T13:40:07.292Z,337
2022-09-12T13:41:15.991Z,339
2022-09-12T13:42:16.424Z,332
2022-09-12T13:43:07.577Z,346
2022-09-12T13:44:15.748Z,355
2022-09-12T13:45:15.996Z,357
2022-09-12T13:46:15.222Z,339
2022-09-12T13:47:16.611Z,323
2022-09-12T13:48:07.271Z,319
2022-09-12T13:49:06.460Z,326
2022-09-12T13:50:16.413Z,333
2022-09-12T13:51:07.389Z,339
2022-09-12T13:52:16.172Z,352
2022-09-12T13:53:15.905Z,346
2022-09-12T13:55:07.536Z,341
2022-09-12T13:56:08.029Z,355
2022-09-12T13:57:15.784Z,350
2022-09-12T13:58:17.403Z,354
2022-09-12T13:59:15.126Z,341
2022-09-12T14:00:15.896Z,326
2022-09-12T14:01:16.518Z,332
2022-09-12T14:02:15.806Z,337
2022-09-12T14:03:15.611Z,343
2022-09-12T14:04:15.386Z,346
2022-09-12T14:05:16.204Z,334
2022-09-12T14:06:16.593Z,332
2022-09-12T14:07:16.378Z,349
2022-09-12T14:08:07.496Z,346
2022-09-12T14:09:15.339Z,349
2022-09-12T14:10:15.624Z,354
2022-09-12T14:11:16.140Z,363
2022-09-12T14:12:07.203Z,356
2022-09-12T14:13:16.523Z,341
2022-09-12T14:14:15.041Z,328
2022-09-12T14:15:15.672Z,327
2022-09-12T14:16:16.489Z,325
2022-09-12T14:17:16.372Z,329
2022-09-12T14:18:15.495Z,326
2022-09-12T14:19:15.566Z,322
2022-09-12T14:20:16.022Z,331
2022-09-12T14:22:15.980Z,338
2022-09-12T14:23:15.829Z,339
2022-09-12T14:24:15.443Z,335
2022-09-12T14:25:16.320Z,339
2022-09-12T14:26:15.391Z,332
2022-09-12T14:27:16.466Z,340
2022-09-12T14:28:07.460Z,333
2022-09-12T14:29:15.430Z,328
2022-09-12T14:31:16.666Z,335
2022-09-12T14:32:15.680Z,331
2022-09-12T14:33:16.978Z,320
2022-09-12T14:34:15.269Z,322
2022-09-12T14:35:16.018Z,341
2022-09-12T14:36:16.472Z,330
2022-09-12T14:37:15.967Z,333
2022-09-12T14:38:07.372Z,339
2022-09-12T14:39:14.834Z,343
2022-09-12T14:40:16.595Z,353
2022-09-12T14:41:16.256Z,346
2022-09-12T14:42:15.842Z,347
2022-09-12T14:43:16.463Z,346
2022-09-12T14:44:15.237Z,338